createdAt,value
2022-10-19T00:00:09.559Z,5.41
2022-10-19T00:02:41.958Z,5.41
2022-10-19T00:05:14.429Z,5.47
2022-10-19T00:07:46.966Z,5.44
2022-10-19T00:10:19.403Z,5.48
2022-10-19T00:12:51.919Z,5.56
2022-10-19T00:15:24.363Z,5.65
2022-10-19T00:17:56.889Z,5.74
2022-10-19T00:20:30.547Z,5.82
2022-10-19T00:23:04.522Z,5.90
2022-10-19T00:25:38.520Z,5.94
2022-10-19T00:28:10.916Z,6.00
2022-10-19T00:30:43.306Z,6.09
2022-10-19T00:33:21.202Z,6.22
2022-10-19T00:35:53.910Z,6.22
2022-10-19T00:38:26.481Z,6.19
2022-10-19T00:40:58.951Z,6.13
2022-10-19T00:43:33.309Z,6.06
2022-10-19T00:46:05.677Z,6.01
2022-10-19T00:48:38.258Z,6.03
2022-10-19T00:51:11.018Z,6.04
2022-10-19T00:53:43.530Z,5.99
2022-10-19T00:56:16.263Z,5.95
2022-10-19T00:58:48.638Z,6.03
2022-10-19T01:01:23.980Z,5.98
2022-10-19T01:03:56.771Z,5.95
2022-10-19T01:06:29.570Z,6.01
2022-10-19T01:09:02.051Z,6.11
2022-10-19T01:11:40.349Z,6.12
2022-10-19T01:14:14.628Z,6.15
2022-10-19T01:17:13.084Z,6.16
2022-10-19T01:20:08.176Z,6.20
2022-10-19T01:22:52.523Z,6.27
2022-10-19T01:25:45.217Z,6.32
2022-10-19T01:28:31.636Z,6.30
2022-10-19T01:31:18.776Z,6.25
2022-10-19T01:34:00.528Z,6.28
2022-10-19T01:36:38.304Z,6.36
2022-10-19T01:39:10.664Z,6.30
2022-10-19T01:41:46.376Z,6.28
2022-10-19T01:44:39.757Z,6.19
2022-10-19T01:47:16.936Z,6.17
2022-10-19T01:49:53.832Z,6.15
2022-10-19T01:52:27.143Z,6.16
2022-10-19T01:55:02.132Z,6.19
2022-10-19T01:57:37.443Z,6.25
2022-10-19T02:00:11.311Z,6.30
2022-10-19T02:02:46.471Z,6.34
2022-10-19T02:05:22.988Z,6.37
2022-10-19T02:07:58.226Z,6.37
2022-10-19T02:10:32.890Z,6.42
2022-10-19T02:13:07.239Z,6.44
2022-10-19T02:15:42.932Z,6.39
2022-10-19T02:18:17.716Z,6.38
2022-10-19T02:20:50.204Z,6.41
2022-10-19T02:23:24.077Z,6.40
2022-10-19T02:25:56.935Z,6.39
2022-10-19T02:28:30.180Z,6.29
2022-10-19T02:31:02.957Z,6.22
2022-10-19T02:33:35.428Z,6.18
2022-10-19T02:36:08.213Z,6.11
2022-10-19T02:38:41.652Z,6.07
2022-10-19T02:41:17.978Z,6.04
2022-10-19T02:43:54.502Z,6.00
2022-10-19T02:49:18.160Z,5.89
2022-10-19T02:51:56.737Z,5.84
2022-10-19T02:54:30.713Z,5.82
2022-10-19T02:57:09.087Z,5.86
2022-10-19T02:59:44.432Z,5.87
2022-10-19T03:02:18.139Z,5.80
2022-10-19T03:04:50.823Z,5.74
2022-10-19T03:07:23.293Z,5.74
2022-10-19T03:09:55.949Z,5.80
2022-10-19T03:12:28.495Z,5.73
2022-10-19T03:15:00.972Z,5.64
2022-10-19T03:17:34.102Z,5.66
2022-10-19T03:20:06.889Z,5.63
2022-10-19T03:22:40.590Z,5.66
2022-10-19T03:25:13.299Z,5.70
2022-10-19T03:27:45.769Z,5.69
2022-10-19T03:30:18.157Z,5.64
2022-10-19T03:32:50.626Z,5.57
2022-10-19T03:35:23.068Z,5.59
2022-10-19T03:37:55.656Z,5.64
2022-10-19T03:40:28.148Z,5.62
2022-10-19T03:43:00.659Z,5.61
2022-10-19T03:45:33.199Z,5.55
2022-10-19T03:48:06.262Z,5.46
2022-10-19T03:50:38.632Z,5.39
2022-10-19T03:53:11.167Z,5.34
2022-10-19T03:55:46.093Z,5.37
2022-10-19T03:58:18.495Z,5.35
2022-10-19T04:00:51.049Z,5.39
2022-10-19T04:03:23.622Z,5.38
2022-10-19T04:06:01.995Z,5.33
2022-10-19T04:08:34.652Z,5.32
2022-10-19T04:11:08.661Z,5.30
2022-10-19T04:13:41.429Z,5.28
2022-10-19T04:16:14.125Z,5.26
2022-10-19T04:18:46.837Z,5.19
2022-10-19T04:21:21.761Z,5.08
2022-10-19T04:24:00.669Z,5.01
2022-10-19T04:26:34.092Z,4.94
2022-10-19T04:29:10.891Z,4.87
2022-10-19T04:31:43.371Z,4.85
2022-10-19T04:34:16.618Z,4.93
2022-10-19T04:36:49.412Z,4.99
2022-10-19T04:39:22.048Z,4.92
2022-10-19T04:41:54.722Z,4.84
2022-10-19T04:44:30.136Z,4.77
2022-10-19T04:47:02.690Z,4.75
2022-10-19T04:49:35.237Z,4.73
2022-10-19T04:52:07.918Z,4.67
2022-10-19T04:54:40.384Z,4.67
2022-10-19T04:57:15.220Z,4.66
2022-10-19T04:59:49.625Z,4.65
2022-10-19T05:02:30.592Z,4.68
2022-10-19T05:05:02.886Z,4.70
2022-10-19T05:07:35.498Z,4.70
2022-10-19T05:10:08.821Z,4.73
2022-10-19T05:12:41.322Z,4.73
2022-10-19T05:15:13.875Z,4.74
2022-10-19T05:17:46.574Z,4.75
2022-10-19T05:20:19.052Z,4.79
2022-10-19T05:22:51.942Z,4.86
2022-10-19T05:25:24.445Z,4.92
2022-10-19T05:27:57.101Z,4.98
2022-10-19T05:30:29.751Z,4.98
2022-10-19T05:33:02.400Z,4.97
2022-10-19T05:35:34.847Z,5.04
2022-10-19T05:38:07.477Z,5.09
2022-10-19T05:40:44.618Z,5.03
2022-10-19T05:43:17.026Z,5.02
2022-10-19T05:45:52.679Z,5.03
2022-10-19T05:48:32.964Z,4.98
2022-10-19T05:51:06.493Z,4.97
2022-10-19T05:56:22.883Z,4.99
2022-10-19T05:58:56.162Z,5.04
2022-10-19T06:01:29.200Z,5.08
2022-10-19T06:04:02.222Z,5.07
2022-10-19T06:06:34.961Z,5.10
2022-10-19T06:09:07.910Z,5.18
2022-10-19T06:11:42.328Z,5.26
2022-10-19T06:14:17.919Z,5.32
2022-10-19T06:16:50.800Z,5.37
2022-10-19T06:19:23.335Z,5.44
2022-10-19T06:21:55.739Z,5.49
2022-10-19T06:24:28.599Z,5.58
2022-10-19T06:27:01.210Z,5.66
2022-10-19T06:29:33.766Z,5.71
2022-10-19T06:32:06.301Z,5.74
2022-10-19T06:34:38.718Z,5.77
2022-10-19T06:37:11.735Z,5.80
2022-10-19T06:39:44.327Z,5.85
2022-10-19T06:42:16.874Z,5.91
2022-10-19T06:44:49.399Z,5.96
2022-10-19T06:47:22.133Z,5.99
2022-10-19T06:49:54.534Z,6.05
2022-10-19T06:52:27.038Z,6.09
2022-10-19T06:54:59.564Z,6.14
2022-10-19T06:57:32.426Z,6.24
2022-10-19T07:00:06.149Z,6.33
2022-10-19T07:02:38.983Z,6.42
2022-10-19T07:05:11.431Z,6.55
2022-10-19T07:07:45.057Z,6.68
2022-10-19T07:10:17.656Z,6.87
2022-10-19T07:12:50.158Z,7.09
2022-10-19T07:15:22.591Z,7.22
2022-10-19T07:17:55.061Z,7.34
2022-10-19T07:20:27.453Z,7.49
2022-10-19T07:22:59.967Z,7.68
2022-10-19T07:25:32.522Z,7.89
2022-10-19T07:28:05.372Z,8.09
2022-10-19T07:30:38.908Z,8.25
2022-10-19T07:33:11.399Z,8.43
2022-10-19T07:35:43.827Z,8.60
2022-10-19T07:38:16.257Z,8.73
2022-10-19T07:40:48.806Z,8.88
2022-10-19T07:43:21.218Z,8.94
2022-10-19T07:46:03.816Z,9.03
2022-10-19T07:48:36.700Z,9.06
2022-10-19T07:51:09.975Z,9.13
2022-10-19T07:53:44.521Z,9.19
2022-10-19T07:56:18.368Z,9.32
2022-10-19T07:58:53.936Z,9.41
2022-10-19T08:01:27.990Z,9.55
2022-10-19T08:06:54.663Z,9.81
2022-10-19T08:09:51.626Z,9.92
2022-10-19T08:12:19.711Z,10.03
2022-10-19T08:14:53.574Z,10.17
2022-10-19T08:17:26.007Z,10.37
2022-10-19T08:20:01.098Z,10.70
2022-10-19T08:22:33.656Z,10.96
2022-10-19T08:25:06.584Z,11.21
2022-10-19T08:27:39.091Z,11.39
2022-10-19T08:30:11.856Z,11.58
2022-10-19T08:32:44.177Z,11.64
2022-10-19T08:35:16.676Z,11.74
2022-10-19T08:37:49.289Z,11.74
2022-10-19T08:40:28.422Z,11.89
2022-10-19T08:43:22.514Z,12.16
2022-10-19T08:46:01.437Z,12.55
2022-10-19T08:48:36.954Z,12.52
2022-10-19T08:51:13.216Z,12.66
2022-10-19T08:53:45.664Z,13.04
2022-10-19T08:56:49.922Z,13.66
2022-10-19T08:59:27.834Z,14.19
2022-10-19T09:02:10.762Z,14.68
2022-10-19T09:04:46.991Z,14.92
2022-10-19T09:07:19.669Z,15.21
2022-10-19T09:10:04.017Z,15.43
2022-10-19T09:12:48.198Z,15.52
2022-10-19T09:15:25.235Z,15.58
2022-10-19T09:17:57.708Z,15.83
2022-10-19T09:20:33.892Z,16.05
2022-10-19T09:23:26.522Z,16.17
2022-10-19T09:25:58.865Z,16.57
2022-10-19T09:28:38.978Z,16.95
2022-10-19T09:31:15.161Z,17.28
2022-10-19T09:33:52.173Z,17.35
2022-10-19T09:36:49.430Z,17.64
2022-10-19T09:39:21.339Z,17.98
2022-10-19T09:41:59.728Z,18.02
2022-10-19T09:44:32.355Z,17.96
2022-10-19T09:47:12.998Z,17.90
2022-10-19T09:49:47.396Z,17.73
2022-10-19T09:52:31.846Z,17.49
2022-10-19T09:55:17.780Z,17.38
2022-10-19T09:57:57.630Z,17.37
2022-10-19T10:00:37.016Z,17.62
2022-10-19T10:03:21.672Z,17.84
2022-10-19T10:05:56.345Z,17.93
2022-10-19T10:08:31.570Z,18.04
2022-10-19T10:11:08.747Z,18.05
2022-10-19T10:13:48.908Z,18.22
2022-10-19T10:16:22.735Z,18.12
2022-10-19T10:18:59.788Z,17.97
2022-10-19T10:21:46.095Z,17.78
2022-10-19T10:24:19.871Z,17.97
2022-10-19T10:26:57.498Z,18.23
2022-10-19T10:29:32.898Z,18.63
2022-10-19T10:32:07.584Z,19.39
2022-10-19T10:34:51.038Z,19.92
2022-10-19T10:37:29.727Z,19.95
2022-10-19T10:40:04.841Z,20.16
2022-10-19T10:42:44.581Z,20.13
2022-10-19T10:45:29.517Z,19.94
2022-10-19T10:48:20.754Z,19.76
2022-10-19T10:50:53.370Z,19.45
2022-10-19T10:53:32.077Z,19.26
2022-10-19T10:56:06.262Z,19.19
2022-10-19T10:58:44.530Z,19.68
2022-10-19T11:01:24.166Z,19.99
2022-10-19T11:04:02.889Z,20.37
2022-10-19T11:06:43.727Z,20.47
2022-10-19T11:09:29.608Z,20.64
2022-10-19T11:12:04.543Z,21.03
2022-10-19T11:14:41.661Z,21.21
2022-10-19T11:17:25.930Z,21.42
2022-10-19T11:19:58.679Z,21.71
2022-10-19T11:22:59.251Z,21.58
2022-10-19T11:25:36.141Z,21.96
2022-10-19T11:28:24.041Z,22.60
2022-10-19T11:31:14.735Z,22.56
2022-10-19T11:33:53.301Z,21.99
2022-10-19T11:36:45.632Z,21.59
2022-10-19T11:39:18.440Z,21.89
2022-10-19T11:42:01.954Z,21.89
2022-10-19T11:44:53.401Z,21.84
2022-10-19T11:47:30.238Z,21.78
2022-10-19T11:50:11.098Z,21.43
2022-10-19T11:52:46.409Z,21.19
2022-10-19T11:55:38.042Z,21.36
2022-10-19T11:58:10.725Z,21.75
2022-10-19T12:00:56.506Z,21.44
2022-10-19T12:03:34.841Z,21.65
2022-10-19T12:06:12.921Z,21.84
2022-10-19T12:08:45.363Z,22.17
2022-10-19T12:11:45.533Z,22.88
2022-10-19T12:14:22.310Z,22.85
2022-10-19T12:16:56.491Z,22.28
2022-10-19T12:19:32.372Z,22.03
2022-10-19T12:22:07.518Z,21.89
2022-10-19T12:24:40.878Z,22.07
2022-10-19T12:27:17.371Z,22.26
2022-10-19T12:29:53.853Z,22.33
2022-10-19T12:32:28.025Z,22.19
2022-10-19T12:35:09.603Z,22.11
2022-10-19T12:37:49.171Z,22.55
2022-10-19T12:40:32.943Z,22.81
2022-10-19T12:43:11.099Z,22.41
2022-10-19T12:46:02.128Z,22.02
2022-10-19T12:48:36.457Z,21.66
2022-10-19T12:51:12.152Z,21.70
2022-10-19T12:53:50.515Z,21.67
2022-10-19T12:56:24.800Z,21.08
2022-10-19T12:59:02.359Z,20.70
2022-10-19T13:01:35.127Z,20.38
2022-10-19T13:04:14.523Z,19.35
2022-10-19T13:06:49.514Z,19.09
2022-10-19T13:09:28.884Z,18.61
2022-10-19T13:12:25.657Z,17.82
2022-10-19T13:14:58.567Z,17.47
2022-10-19T13:17:36.511Z,17.22
2022-10-19T13:20:15.463Z,17.06
2022-10-19T13:22:49.998Z,16.91
2022-10-19T13:25:23.847Z,16.61
2022-10-19T13:28:02.611Z,16.32
2022-10-19T13:30:45.311Z,16.12
2022-10-19T13:33:33.172Z,15.87
2022-10-19T13:36:08.550Z,15.75
2022-10-19T13:38:43.291Z,15.71
2022-10-19T13:41:21.750Z,15.65
2022-10-19T13:44:10.321Z,15.65
2022-10-19T13:46:45.773Z,15.68
2022-10-19T13:49:27.728Z,15.63
2022-10-19T13:52:21.557Z,15.27
2022-10-19T13:54:54.777Z,15.59
2022-10-19T13:57:31.318Z,15.55
2022-10-19T14:00:05.244Z,15.55
2022-10-19T14:02:50.829Z,15.50
2022-10-19T14:05:47.100Z,15.51
2022-10-19T14:08:25.926Z,15.51
2022-10-19T14:11:01.523Z,15.52
2022-10-19T14:13:34.156Z,15.51
2022-10-19T14:16:06.741Z,15.54
2022-10-19T14:18:40.747Z,15.63
2022-10-19T14:21:15.402Z,15.77
2022-10-19T14:23:48.059Z,15.85
2022-10-19T14:26:22.629Z,15.84
2022-10-19T14:28:57.317Z,15.80
2022-10-19T14:31:35.277Z,15.81
2022-10-19T14:34:09.341Z,15.81
2022-10-19T14:36:48.036Z,15.79
2022-10-19T14:39:33.264Z,15.85
2022-10-19T14:42:09.725Z,15.77
2022-10-19T14:44:43.193Z,15.71
2022-10-19T14:47:27.851Z,15.63
2022-10-19T14:50:00.584Z,15.48
2022-10-19T14:52:37.660Z,15.33
2022-10-19T14:55:18.077Z,15.22
2022-10-19T14:57:52.426Z,15.17
2022-10-19T15:02:58.860Z,15.01
2022-10-19T15:05:33.778Z,14.92
2022-10-19T15:08:12.377Z,14.93
2022-10-19T15:10:46.720Z,14.85
2022-10-19T15:13:31.638Z,14.66
2022-10-19T15:16:04.133Z,14.58
2022-10-19T15:18:49.190Z,14.44
2022-10-19T15:21:22.501Z,14.28
2022-10-19T15:24:06.043Z,14.17
2022-10-19T15:26:38.991Z,14.00
2022-10-19T15:29:20.027Z,13.87
2022-10-19T15:31:56.501Z,13.78
2022-10-19T15:34:29.812Z,13.57
2022-10-19T15:37:03.744Z,13.50
2022-10-19T15:39:40.989Z,13.44
2022-10-19T15:42:32.171Z,13.36
2022-10-19T15:45:24.706Z,13.28
2022-10-19T15:48:15.996Z,13.22
2022-10-19T15:50:49.456Z,13.16
2022-10-19T15:53:22.127Z,13.10
2022-10-19T15:55:55.002Z,13.05
2022-10-19T15:58:28.980Z,13.02
2022-10-19T16:01:02.049Z,12.95
2022-10-19T16:03:34.521Z,12.87
2022-10-19T16:06:07.092Z,12.83
2022-10-19T16:08:39.678Z,12.78
2022-10-19T16:11:16.599Z,12.74
2022-10-19T16:13:49.190Z,12.72
2022-10-19T16:16:26.068Z,12.66
2022-10-19T16:18:59.026Z,12.55
2022-10-19T16:21:33.102Z,12.46
2022-10-19T16:24:05.844Z,12.36
2022-10-19T16:26:38.481Z,12.27
2022-10-19T16:29:11.241Z,12.19
2022-10-19T16:31:44.001Z,12.05
2022-10-19T16:34:16.551Z,11.96
2022-10-19T16:36:49.148Z,11.90
2022-10-19T16:39:21.684Z,11.84
2022-10-19T16:41:55.730Z,11.76
2022-10-19T16:44:28.271Z,11.70
2022-10-19T16:47:03.479Z,11.72
2022-10-19T16:49:36.291Z,11.67
2022-10-19T16:52:12.836Z,11.60
2022-10-19T16:54:54.517Z,11.55
2022-10-19T16:57:27.238Z,11.54
2022-10-19T16:59:59.847Z,11.55
2022-10-19T17:02:32.797Z,11.51
2022-10-19T17:05:08.430Z,11.51
2022-10-19T17:07:41.155Z,11.51
2022-10-19T17:10:16.468Z,11.50
2022-10-19T17:12:49.515Z,11.46
2022-10-19T17:15:42.070Z,11.44
2022-10-19T17:18:15.797Z,11.42
2022-10-19T17:20:49.508Z,11.38
2022-10-19T17:23:21.902Z,11.31
2022-10-19T17:25:54.313Z,11.26
2022-10-19T17:28:28.174Z,11.23
2022-10-19T17:31:05.760Z,11.22
2022-10-19T17:33:39.499Z,11.26
2022-10-19T17:36:14.075Z,11.19
2022-10-19T17:38:46.921Z,11.13
2022-10-19T17:41:20.165Z,11.06
2022-10-19T17:43:53.049Z,11.12
2022-10-19T17:46:34.449Z,11.16
2022-10-19T17:49:07.461Z,11.17
2022-10-19T17:51:40.042Z,11.12
2022-10-19T17:54:13.697Z,11.13
2022-10-19T17:56:46.461Z,11.14
2022-10-19T17:59:30.098Z,11.15
2022-10-19T18:02:09.188Z,11.17
2022-10-19T18:04:41.630Z,11.14
2022-10-19T18:07:14.265Z,11.16
2022-10-19T18:09:46.720Z,11.16
2022-10-19T18:12:19.291Z,11.12
2022-10-19T18:14:51.944Z,11.10
2022-10-19T18:17:27.656Z,11.03
2022-10-19T18:20:00.563Z,10.97
2022-10-19T18:22:34.626Z,11.03
2022-10-19T18:25:07.365Z,11.00
2022-10-19T18:27:40.227Z,10.93
2022-10-19T18:30:12.845Z,10.88
2022-10-19T18:32:49.120Z,10.91
2022-10-19T18:35:21.776Z,10.87
2022-10-19T18:37:54.371Z,10.82
2022-10-19T18:40:27.033Z,10.78
2022-10-19T18:42:59.548Z,10.70
2022-10-19T18:45:33.619Z,10.65
2022-10-19T18:48:06.462Z,10.62
2022-10-19T18:50:39.005Z,10.60
2022-10-19T18:53:11.616Z,10.58
2022-10-19T18:55:44.686Z,10.58
2022-10-19T18:58:17.844Z,10.59
2022-10-19T19:00:50.642Z,10.60
2022-10-19T19:03:25.324Z,10.57
2022-10-19T19:06:01.704Z,10.55
2022-10-19T19:08:34.519Z,10.52
2022-10-19T19:11:22.540Z,10.48
2022-10-19T19:13:59.914Z,10.45
2022-10-19T19:16:34.475Z,10.42
2022-10-19T19:19:09.028Z,10.42
2022-10-19T19:21:44.085Z,10.38
2022-10-19T19:24:23.892Z,10.37
2022-10-19T19:26:58.762Z,10.31
2022-10-19T19:29:31.453Z,10.27
2022-10-19T19:32:05.856Z,10.23
2022-10-19T19:34:38.636Z,10.20
2022-10-19T19:37:11.464Z,10.18
2022-10-19T19:39:44.753Z,10.18
2022-10-19T19:42:18.421Z,10.15
2022-10-19T19:44:51.334Z,10.14
2022-10-19T19:47:24.108Z,10.05
2022-10-19T19:49:56.611Z,10.03
2022-10-19T19:52:29.234Z,9.99
2022-10-19T19:57:39.891Z,9.89
2022-10-19T20:00:16.155Z,9.85
2022-10-19T20:02:55.894Z,9.77
2022-10-19T20:05:28.616Z,9.77
2022-10-19T20:08:01.565Z,9.73
2022-10-19T20:10:38.103Z,9.76
2022-10-19T20:13:10.631Z,9.77
2022-10-19T20:15:44.197Z,9.71
2022-10-19T20:18:20.004Z,9.69
2022-10-19T20:20:52.772Z,9.65
2022-10-19T20:23:25.613Z,9.61
2022-10-19T20:25:58.390Z,9.59
2022-10-19T20:28:34.039Z,9.59
2022-10-19T20:31:09.394Z,9.54
2022-10-19T20:33:44.290Z,9.48
2022-10-19T20:36:19.662Z,9.50
2022-10-19T20:38:54.256Z,9.55
2022-10-19T20:41:27.827Z,9.55
2022-10-19T20:44:02.043Z,9.51
2022-10-19T20:46:35.256Z,9.57
2022-10-19T20:49:07.862Z,9.52
2022-10-19T20:51:41.236Z,9.53
2022-10-19T20:54:14.111Z,9.53
2022-10-19T20:56:48.355Z,9.48
2022-10-19T20:59:21.960Z,9.47
2022-10-19T21:01:55.568Z,9.44
2022-10-19T21:04:28.470Z,9.44
2022-10-19T21:07:03.457Z,9.47
2022-10-19T21:09:36.166Z,9.54
2022-10-19T21:12:08.883Z,9.53
2022-10-19T21:14:41.747Z,9.48
2022-10-19T21:17:14.270Z,9.44
2022-10-19T21:19:48.950Z,9.41
2022-10-19T21:22:22.654Z,9.42
2022-10-19T21:24:55.331Z,9.39
2022-10-19T21:27:27.945Z,9.38
2022-10-19T21:30:00.470Z,9.37
2022-10-19T21:32:33.360Z,9.32
2022-10-19T21:35:07.784Z,9.33
2022-10-19T21:37:40.953Z,9.34
2022-10-19T21:40:13.476Z,9.35
2022-10-19T21:42:46.085Z,9.28
2022-10-19T21:45:29.902Z,9.25
2022-10-19T21:48:03.632Z,9.23
2022-10-19T21:50:37.490Z,9.25
2022-10-19T21:53:10.105Z,9.25
2022-10-19T21:55:42.721Z,9.29
2022-10-19T21:58:15.417Z,9.29
2022-10-19T22:00:48.052Z,9.24
2022-10-19T22:03:22.896Z,9.23
2022-10-19T22:05:55.337Z,9.27
2022-10-19T22:08:28.131Z,9.27
2022-10-19T22:11:05.000Z,9.31
2022-10-19T22:13:38.022Z,9.28
2022-10-19T22:16:12.342Z,9.28
2022-10-19T22:18:44.878Z,9.28
2022-10-19T22:21:22.158Z,9.28
2022-10-19T22:24:05.716Z,9.23
2022-10-19T22:26:39.981Z,9.24
2022-10-19T22:29:12.938Z,9.26
2022-10-19T22:31:45.494Z,9.24
2022-10-19T22:34:18.227Z,9.24
2022-10-19T22:36:50.822Z,9.22
2022-10-19T22:39:26.977Z,9.22
2022-10-19T22:42:03.719Z,9.20
2022-10-19T22:44:36.180Z,9.22
2022-10-19T22:47:08.804Z,9.22
2022-10-19T22:49:41.492Z,9.21
2022-10-19T22:52:14.084Z,9.21
2022-10-19T22:54:46.839Z,9.21
2022-10-19T22:57:19.571Z,9.20
2022-10-19T22:59:52.359Z,9.23
2022-10-19T23:02:25.187Z,9.23
2022-10-19T23:04:57.685Z,9.24
2022-10-19T23:07:30.407Z,9.24
2022-10-19T23:10:03.179Z,9.20
2022-10-19T23:12:35.977Z,9.22
2022-10-19T23:15:09.158Z,9.20
2022-10-19T23:17:41.956Z,9.20
2022-10-19T23:20:14.630Z,9.17
2022-10-19T23:22:47.321Z,9.23
2022-10-19T23:25:19.893Z,9.20
2022-10-19T23:27:53.006Z,9.20
2022-10-19T23:30:25.758Z,9.22
2022-10-19T23:32:58.323Z,9.21
2022-10-19T23:35:30.778Z,9.18
2022-10-19T23:38:03.326Z,9.15
2022-10-19T23:40:36.367Z,9.10
2022-10-19T23:43:09.167Z,9.10
2022-10-19T23:45:42.212Z,9.07
2022-10-19T23:48:14.908Z,9.10
2022-10-19T23:50:56.135Z,9.06
2022-10-19T23:53:29.954Z,9.05
2022-10-19T23:56:03.439Z,9.06
2022-10-19T23:58:36.196Z,9.08
